Fernando Mendes

Olheiro - Grêmio
25 Nov 2027
Quinta-feira
Processo

Personalidade

Adaptabilidade (4) Ambição (11) Controvérsia (8) Lealdade (15) Pressão (4) Profissionalismo (10) Espírito Esportivo (4) Temperamento (10)

Perfil

Estilo de Treinamento Democrático
Licença Continental B
Determinação 15
Gestão de Pessoas 14
Motivação 12
Disciplina 8
Satisfação no Trabalho
100%
Fadiga
0%
Função Olheiro
Salário 42.0K p/s
Contrato 14.03.2030

Desempenho

Comportamento Bom
Eficácia do Treinamento
49%
Desenvolvimento do Jogador
40%
Prevenção de Lesões
60%
Implementação Tática
40%

Eventos Recentes

Participou de uma reunião de recrutamento agora
Participou de uma reunião de recrutamento 7d atrás
Recomendou um alvo de transferência 7d atrás
Recomendou um alvo de transferência 7d atrás
Participou de uma reunião de recrutamento 14d atrás
Recomendou um alvo de transferência 14d atrás
Recomendou um alvo de transferência 14d atrás
Recomendou um alvo de transferência 21d atrás

Monitorando agora

73
Jogador Clube Status Habilidade Confiança Observado Última observação Último voto
Victor Sá São Paulo Ativo 125 / 120 83% 1 28.06.2027 Aprovar
Ferreirinha Sport Recife Ativo 128 / 131 83% 1 21.06.2027 Aprovar
Welington Southampton Ativo 132 / 120 40% 5 27.05.2027 -
Mikkel Damsgaard Brentford Ativo 147 / 138 40% 3 27.05.2027 -
Jacob Ramsey Newcastle United Ativo 152 / 142 40% 2 27.05.2027 -
Scott Twine Bristol City Ativo 128 / 132 40% 3 26.05.2027 -
Morgan Whittaker Middlesbrough Ativo 135 / 127 40% 4 26.05.2027 -
Adrien Truffert Bournemouth Ativo 150 / 146 40% 4 25.05.2027 -
Luke McNally Bristol City Ativo 133 / 124 40% 1 25.05.2027 -
Guille Rosas Gijón Ativo 138 / 144 40% 1 25.05.2027 -
Kevin Fulham Ativo 145 / 142 40% 3 24.05.2027 -
Finn Azaz Southampton Ativo 128 / 130 40% 4 22.05.2027 -
Manu Koné AS Roma Ativo 161 / 163 40% 2 17.05.2027 -
Boubacar Kamara Aston Villa Ativo 160 / 170 40% 5 17.05.2027 -
Pierre Kalulu Juventus Ativo 161 / 156 40% 3 17.05.2027 -
Jan Paul van Hecke Tottenham Ativo 158 / 159 40% 2 14.05.2027 -
Othmane Maamma Watford Ativo 131 / 129 40% 1 14.05.2027 -
Georginio Rutter Brighton Ativo 144 / 154 40% 1 14.05.2027 -
Borja Sainz Fiorentina Ativo 146 / 145 40% 2 12.05.2027 -
Giacomo Raspadori Atalanta Ativo 144 / 154 40% 2 12.05.2027 -
Curtis Jones Inter Ativo 163 / 168 40% 3 09.05.2027 -
Nicolas Jackson Aston Villa Ativo 155 / 158 40% 2 09.05.2027 -
Micky van de Ven Tottenham Ativo 152 / 156 40% 1 08.05.2027 -
Ethan Galbraith Swansea City Ativo 129 / 130 40% 1 08.05.2027 -
Mats Wieffer Brighton Ativo 153 / 155 40% 3 07.05.2027 -
Amadou Onana Aston Villa Ativo 157 / 165 40% 2 07.05.2027 -
Xavi Simons Tottenham Ativo 152 / 165 40% 2 07.05.2027 -
Carlos Alcaraz Everton Ativo 143 / 155 40% 1 07.05.2027 -
Sven Botman Newcastle United Ativo 153 / 164 40% 1 07.05.2027 -
Hector Ramirez Newcastle United Ativo 159 / 140 40% 2 06.05.2027 -
Nico González Newcastle United Ativo 160 / 153 40% 1 06.05.2027 -
Alexis Saelemaekers AC Milan Ativo 157 / 143 40% 1 02.05.2027 -
Soungoutou Magassa West Ham United Ativo 131 / 133 40% 1 02.05.2027 -
Callum Hudson-Odoi Nottingham Forest Ativo 154 / 159 40% 1 30.04.2027 -
Harry Clarke Preston Ativo 122 / 125 40% 3 27.04.2027 -
Callum Doyle Wrexham Ativo 132 / 120 40% 3 26.04.2027 -
Ryan Sessegnon Fulham Ativo 151 / 139 40% 1 26.04.2027 -
Pau Víctor AVS Ativo 146 / 128 40% 4 21.04.2027 -
Dango Ouattara Brentford Ativo 149 / 146 40% 1 21.04.2027 -
Tom Fellows Southampton Ativo 137 / 126 40% 1 18.04.2027 -
Iván Fresneda Sporting CP Ativo 138 / 148 40% 2 17.04.2027 -
Rafik Guitane Estoril Praia Ativo 131 / 134 40% 3 17.04.2027 -
Francisco Moura Lusitânia Lourosa Ativo 137 / 150 40% 2 16.04.2027 -
Yehor Yarmoliuk Brentford Ativo 150 / 157 40% 1 15.04.2027 -
Jake O'Brien Everton Ativo 149 / 142 40% 1 15.04.2027 -
Óscar Mingueza Crystal Palace Ativo 149 / 143 40% 1 15.04.2027 -
Derensili Sanches Fernandes Huddersfield Town Ativo 120 / 110 40% 1 11.04.2027 -
Víctor Gómez Braga Ativo 141 / 143 40% 5 10.04.2027 -
Ozziel Herrera Tigres Ativo 135 / 139 40% 1 10.04.2027 -
Milan van Ewijk Mansfield Town Ativo 133 / 124 40% 1 05.04.2027 -
Gonçalo Inácio Sporting CP Ativo 147 / 151 40% 1 05.04.2027 -
Alberto Costa Porto Ativo 145 / 144 40% 3 02.04.2027 -
Gianluca Prestianni Benfica Ativo 140 / 131 40% 2 02.04.2027 -
Luis Quintero Torreense Ativo 128 / 131 40% 1 02.04.2027 -
Sergi Altimira Sporting CP Ativo 134 / 142 40% 2 01.04.2027 -
Joaquín Panichelli Le Havre AC Ativo 150 / 133 40% 1 01.04.2027 -
Bright Arrey-Mbi Braga Ativo 137 / 142 40% 2 31.03.2027 -
Sikou Niakaté Braga Ativo 138 / 141 40% 1 31.03.2027 -
Kevin Vazquez Cruz Azul Ativo 138 / 128 40% 2 29.03.2027 -
Florentino Luís Ipswich Town Ativo 138 / 135 40% 1 27.03.2027 -
Erick Sánchez OGC Nice Ativo 148 / 139 40% 2 24.03.2027 -
Gabriel Veron Porto Ativo 124 / 134 40% 1 24.03.2027 -
Richard Ledezma Guadalajara Ativo 132 / 124 40% 1 23.03.2027 -
Félix Lemaréchal Club Brugge Ativo 142 / 129 40% 2 21.03.2027 -
Jack McGlynn Stoke City Ativo 137 / 141 40% 1 21.03.2027 -
Heorhii Sudakov Benfica Ativo 144 / 154 40% 1 18.03.2027 -
Diego Lainez Tigres Ativo 138 / 130 40% 1 18.03.2027 -
Tyrell Malacia Monaco Ativo 137 / 136 40% 1 17.03.2027 -
Shea Charles Southampton Ativo 140 / 132 40% 1 17.03.2027 -
Jack Rudoni Coventry City Ativo 134 / 126 40% 1 09.03.2027 -
Jordan Holsgrove Estoril Praia Ativo 131 / 118 40% 1 04.03.2027 -
Marquinhos Spartak Moscow Ativo 129 / 141 40% 1 05.02.2027 -
Mario Dorgeles Braga Ativo 131 / 129 40% 1 05.02.2027 -